Terminal Aerodrome Forecast
Issued by NWS

Home | Current Version | Previous Version | Text Only | Print | Product List | Glossary On
Versions: 1 2 3 4 5 6 7 8 9 10 11 12 13 14 15 16 17 18 19
723
FTUS43 KICT 260157 AAA
TAFCNU
TAF AMD
KCNU 260157Z 2602/2624 35008KT 6SM -RA OVC015
      TEMPO 2602/2604 4SM -RA BKN007
     FM260400 35007KT P6SM OVC015
     FM260900 35004KT P6SM BKN025
     FM261000 34004KT 4SM BR FEW009 SCT015
     FM261200 33005KT P6SM SCT090
     FM262100 31008KT P6SM BKN090=

USA.gov is the U.S. government's official web portal to all federal, state and local government web resources and services.